createdAt,value
2022-10-16T00:01:39.470Z,77.92
2022-10-16T00:04:06.450Z,77.84
2022-10-16T00:06:33.580Z,77.81
2022-10-16T00:09:00.818Z,77.60
2022-10-16T00:11:37.678Z,78.12
2022-10-16T00:14:09.010Z,77.92
2022-10-16T00:16:36.278Z,78.38
2022-10-16T00:19:03.833Z,78.67
2022-10-16T00:21:32.632Z,78.52
2022-10-16T00:24:07.444Z,78.81
2022-10-16T00:26:36.220Z,78.98
2022-10-16T00:29:03.930Z,78.15
2022-10-16T00:31:31.242Z,78.07
2022-10-16T00:33:58.688Z,78.93
2022-10-16T00:36:27.270Z,78.96
2022-10-16T00:38:57.217Z,78.35
2022-10-16T00:41:25.977Z,78.02
2022-10-16T00:44:24.537Z,77.60
2022-10-16T00:46:52.112Z,78.36
2022-10-16T00:49:21.734Z,77.83
2022-10-16T00:51:54.752Z,77.36
2022-10-16T00:54:31.029Z,77.41
2022-10-16T00:57:02.169Z,78.76
2022-10-16T00:59:37.068Z,78.86
2022-10-16T01:02:06.702Z,79.28
2022-10-16T01:04:41.372Z,79.15
2022-10-16T01:07:25.687Z,77.90
2022-10-16T01:10:10.706Z,78.89
2022-10-16T01:12:52.028Z,79.22
2022-10-16T01:15:33.839Z,79.59
2022-10-16T01:18:28.675Z,80.27
2022-10-16T01:21:05.271Z,79.67
2022-10-16T01:24:13.080Z,80.96
2022-10-16T01:27:17.298Z,81.52
2022-10-16T01:30:18.425Z,81.72
2022-10-16T01:33:16.863Z,81.22
2022-10-16T01:35:51.163Z,82.08
2022-10-16T01:38:26.907Z,82.12
2022-10-16T01:41:10.545Z,81.71
2022-10-16T01:44:26.150Z,82.11
2022-10-16T01:46:55.136Z,81.75
2022-10-16T01:49:25.646Z,81.11
2022-10-16T01:51:58.755Z,80.92
2022-10-16T01:54:30.251Z,79.51
2022-10-16T01:56:59.128Z,80.62
2022-10-16T01:59:30.650Z,80.41
2022-10-16T02:02:02.650Z,80.48
2022-10-16T02:04:35.552Z,80.10
2022-10-16T02:07:02.935Z,80.46
2022-10-16T02:09:31.901Z,80.59
2022-10-16T02:12:04.545Z,80.79
2022-10-16T02:14:32.181Z,80.41
2022-10-16T02:16:59.128Z,80.85
2022-10-16T02:19:26.313Z,81.89
2022-10-16T02:22:01.024Z,81.69
2022-10-16T02:25:07.302Z,81.93
2022-10-16T02:27:36.753Z,80.93
2022-10-16T02:30:19.374Z,81.11
2022-10-16T02:32:49.810Z,81.88
2022-10-16T02:35:20.246Z,81.30
2022-10-16T02:37:50.231Z,81.65
2022-10-16T02:40:21.506Z,80.60
2022-10-16T02:42:54.150Z,81.94
2022-10-16T02:45:21.491Z,82.21
2022-10-16T02:47:48.423Z,81.93
2022-10-16T02:50:16.218Z,82.22
2022-10-16T02:52:43.612Z,81.94
2022-10-16T02:55:10.562Z,80.93
2022-10-16T02:57:38.217Z,81.16
2022-10-16T03:00:07.782Z,81.71
2022-10-16T03:02:34.799Z,81.83
2022-10-16T03:05:01.977Z,81.15
2022-10-16T03:07:29.081Z,81.18
2022-10-16T03:09:56.513Z,81.62
2022-10-16T03:12:23.478Z,81.39
2022-10-16T03:14:50.400Z,81.70
2022-10-16T03:17:17.877Z,81.22
2022-10-16T03:19:44.893Z,81.49
2022-10-16T03:22:11.930Z,81.28
2022-10-16T03:24:38.855Z,82.09
2022-10-16T03:27:05.791Z,81.38
2022-10-16T03:29:33.912Z,81.43
2022-10-16T03:32:01.279Z,81.85
2022-10-16T03:34:28.927Z,81.46
2022-10-16T03:36:55.844Z,82.29
2022-10-16T03:39:22.799Z,82.86
2022-10-16T03:41:49.758Z,82.13
2022-10-16T03:44:16.718Z,81.89
2022-10-16T03:46:43.656Z,82.44
2022-10-16T03:49:10.628Z,82.51
2022-10-16T03:51:37.654Z,82.15
2022-10-16T03:54:04.602Z,81.81
2022-10-16T03:56:31.620Z,82.10
2022-10-16T03:58:58.549Z,81.93
2022-10-16T04:01:25.770Z,81.75
2022-10-16T04:03:52.736Z,82.30
2022-10-16T04:06:19.660Z,82.19
2022-10-16T04:08:46.945Z,82.85
2022-10-16T04:11:14.107Z,82.88
2022-10-16T04:13:41.081Z,83.37
2022-10-16T04:16:08.166Z,83.80
2022-10-16T04:18:36.200Z,83.51
2022-10-16T04:21:07.822Z,83.46
2022-10-16T04:23:35.089Z,83.63
2022-10-16T04:26:02.210Z,84.15
2022-10-16T04:28:29.487Z,84.23
2022-10-16T04:30:56.827Z,84.49
2022-10-16T04:33:23.768Z,84.80
2022-10-16T04:35:58.898Z,84.44
2022-10-16T04:38:26.310Z,85.00
2022-10-16T04:40:53.881Z,85.08
2022-10-16T04:43:21.714Z,84.23
2022-10-16T04:45:48.786Z,84.96
2022-10-16T04:48:15.747Z,85.30
2022-10-16T04:50:42.669Z,85.95
2022-10-16T04:53:09.611Z,85.71
2022-10-16T04:55:36.589Z,86.02
2022-10-16T04:58:03.631Z,84.87
2022-10-16T05:00:30.789Z,84.95
2022-10-16T05:03:00.490Z,85.58
2022-10-16T05:05:28.379Z,85.31
2022-10-16T05:07:55.386Z,85.35
2022-10-16T05:10:22.316Z,85.80
2022-10-16T05:12:49.278Z,85.75
2022-10-16T05:15:16.399Z,86.20
2022-10-16T05:17:44.740Z,85.89
2022-10-16T05:20:13.309Z,86.12
2022-10-16T05:22:40.254Z,85.30
2022-10-16T05:25:07.699Z,86.03
2022-10-16T05:27:34.722Z,85.30
2022-10-16T05:30:01.689Z,85.44
2022-10-16T05:32:28.641Z,85.22
2022-10-16T05:34:55.621Z,84.75
2022-10-16T05:37:22.636Z,84.39
2022-10-16T05:39:49.572Z,83.83
2022-10-16T05:42:16.587Z,84.10
2022-10-16T05:44:43.557Z,83.58
2022-10-16T05:47:11.756Z,82.67
2022-10-16T05:49:41.295Z,83.90
2022-10-16T05:52:08.677Z,83.13
2022-10-16T05:54:35.597Z,83.36
2022-10-16T05:57:03.182Z,82.48
2022-10-16T05:59:30.078Z,83.32
2022-10-16T06:01:57.051Z,83.96
2022-10-16T06:04:24.147Z,83.87
2022-10-16T06:06:51.207Z,83.24
2022-10-16T06:09:18.132Z,83.58
2022-10-16T06:11:45.101Z,83.01
2022-10-16T06:14:12.029Z,81.78
2022-10-16T06:16:39.284Z,81.45
2022-10-16T06:19:09.195Z,82.12
2022-10-16T06:21:36.343Z,81.44
2022-10-16T06:24:03.445Z,82.78
2022-10-16T06:26:32.370Z,81.90
2022-10-16T06:29:00.944Z,80.45
2022-10-16T06:31:31.812Z,80.43
2022-10-16T06:33:59.268Z,80.32
2022-10-16T06:36:27.081Z,79.03
2022-10-16T06:38:54.299Z,74.53
2022-10-16T06:41:23.642Z,66.42
2022-10-16T06:43:50.967Z,61.08
2022-10-16T06:46:22.576Z,56.24
2022-10-16T06:48:49.640Z,53.46
2022-10-16T06:51:24.049Z,51.06
2022-10-16T06:54:03.413Z,50.34
2022-10-16T06:56:32.882Z,47.66
2022-10-16T06:59:00.535Z,46.20
2022-10-16T07:01:28.978Z,44.30
2022-10-16T07:03:55.966Z,48.06
2022-10-16T07:06:25.297Z,52.96
2022-10-16T07:08:52.896Z,57.04
2022-10-16T07:11:24.480Z,60.45
2022-10-16T07:13:55.928Z,62.47
2022-10-16T07:16:29.569Z,65.06
2022-10-16T07:19:01.926Z,67.06
2022-10-16T07:21:36.226Z,67.93
2022-10-16T07:24:04.922Z,69.17
2022-10-16T07:26:35.019Z,69.06
2022-10-16T07:29:02.282Z,69.87
2022-10-16T07:31:29.527Z,70.74
2022-10-16T07:33:58.777Z,71.05
2022-10-16T07:36:25.815Z,70.74
2022-10-16T07:38:55.456Z,69.11
2022-10-16T07:41:25.681Z,65.86
2022-10-16T07:43:55.473Z,62.00
2022-10-16T07:46:23.755Z,58.67
2022-10-16T07:48:51.499Z,57.00
2022-10-16T07:51:24.835Z,58.01
2022-10-16T07:53:52.839Z,58.61
2022-10-16T07:56:21.822Z,56.98
2022-10-16T07:58:50.786Z,57.75
2022-10-16T08:01:19.260Z,57.86
2022-10-16T08:03:49.537Z,58.84
2022-10-16T08:06:19.747Z,58.25
2022-10-16T08:08:49.085Z,58.34
2022-10-16T08:11:16.151Z,57.44
2022-10-16T08:13:43.570Z,56.16
2022-10-16T08:16:10.938Z,57.11
2022-10-16T08:18:40.879Z,57.77
2022-10-16T08:21:21.791Z,57.22
2022-10-16T08:23:54.472Z,56.78
2022-10-16T08:26:24.314Z,56.58
2022-10-16T08:28:52.994Z,56.66
2022-10-16T08:31:21.102Z,56.88
2022-10-16T08:33:48.823Z,55.57
2022-10-16T08:36:17.475Z,56.78
2022-10-16T08:38:44.976Z,56.49
2022-10-16T08:41:19.084Z,56.03
2022-10-16T08:44:14.880Z,56.16
2022-10-16T08:47:22.015Z,56.45
2022-10-16T08:50:04.156Z,58.09
2022-10-16T08:52:36.455Z,56.45
2022-10-16T08:55:05.842Z,55.25
2022-10-16T08:57:33.658Z,53.53
2022-10-16T09:00:14.010Z,53.32
2022-10-16T09:03:23.293Z,54.37
2022-10-16T09:06:26.247Z,53.75
2022-10-16T09:09:28.413Z,54.22
2022-10-16T09:12:16.067Z,52.45
2022-10-16T09:15:06.398Z,51.75
2022-10-16T09:17:36.303Z,49.42
2022-10-16T09:20:27.221Z,49.31
2022-10-16T09:23:17.292Z,49.49
2022-10-16T09:25:49.353Z,50.83
2022-10-16T09:28:18.448Z,49.60
2022-10-16T09:30:46.920Z,49.97
2022-10-16T09:33:15.843Z,50.51
2022-10-16T09:35:51.762Z,50.46
2022-10-16T09:38:35.349Z,50.88
2022-10-16T09:41:17.596Z,51.22
2022-10-16T09:43:59.464Z,52.98
2022-10-16T09:46:36.944Z,52.47
2022-10-16T09:49:20.066Z,53.18
2022-10-16T09:51:47.188Z,52.76
2022-10-16T09:54:21.405Z,53.80
2022-10-16T09:56:54.806Z,53.47
2022-10-16T09:59:27.704Z,53.65
2022-10-16T10:01:56.261Z,53.07
2022-10-16T10:04:26.998Z,53.52
2022-10-16T10:06:56.674Z,53.49
2022-10-16T10:09:45.403Z,52.68
2022-10-16T10:12:26.840Z,51.44
2022-10-16T10:14:58.086Z,51.52
2022-10-16T10:17:29.739Z,52.65
2022-10-16T10:20:23.858Z,52.39
2022-10-16T10:22:50.876Z,53.06
2022-10-16T10:25:39.502Z,52.95
2022-10-16T10:28:50.493Z,53.04
2022-10-16T10:32:07.490Z,54.77
2022-10-16T10:35:21.578Z,53.99
2022-10-16T10:38:33.680Z,54.88
2022-10-16T10:41:31.321Z,54.46
2022-10-16T10:44:35.083Z,55.50
2022-10-16T10:47:29.835Z,55.24
2022-10-16T10:50:23.965Z,56.09
2022-10-16T10:53:13.551Z,56.01
2022-10-16T10:56:22.150Z,56.30
2022-10-16T10:59:10.600Z,56.58
2022-10-16T11:02:19.015Z,57.04
2022-10-16T11:05:16.558Z,56.56
2022-10-16T11:08:17.074Z,56.42
2022-10-16T11:10:58.730Z,56.14
2022-10-16T11:13:59.309Z,56.05
2022-10-16T11:16:46.920Z,56.81
2022-10-16T11:19:29.339Z,57.06
2022-10-16T11:22:01.408Z,57.19
2022-10-16T11:25:03.935Z,57.92
2022-10-16T11:27:54.791Z,56.29
2022-10-16T11:30:47.978Z,55.80
2022-10-16T11:33:36.215Z,55.71
2022-10-16T11:36:29.833Z,56.78
2022-10-16T11:39:07.831Z,57.66
2022-10-16T11:41:43.236Z,56.55
2022-10-16T11:44:43.351Z,56.41
2022-10-16T11:50:47.371Z,57.79
2022-10-16T11:53:25.857Z,57.43
2022-10-16T11:55:53.047Z,57.99
2022-10-16T11:58:34.366Z,58.89
2022-10-16T12:01:10.442Z,58.55
2022-10-16T12:03:59.513Z,58.70
2022-10-16T12:06:58.863Z,58.44
2022-10-16T12:09:30.658Z,58.81
2022-10-16T12:11:58.306Z,59.21
2022-10-16T12:14:42.957Z,59.35
2022-10-16T12:17:21.771Z,59.29
2022-10-16T12:20:13.331Z,59.10
2022-10-16T12:23:05.595Z,58.98
2022-10-16T12:25:47.674Z,58.87
2022-10-16T12:28:17.382Z,58.78
2022-10-16T12:30:53.925Z,58.72
2022-10-16T12:33:27.297Z,58.44
2022-10-16T12:35:55.189Z,59.01
2022-10-16T12:38:50.202Z,59.61
2022-10-16T12:41:31.747Z,58.89
2022-10-16T12:44:04.477Z,60.10
2022-10-16T12:46:31.287Z,59.13
2022-10-16T12:49:30.040Z,60.09
2022-10-16T12:51:58.179Z,59.80
2022-10-16T12:54:37.272Z,59.29
2022-10-16T12:57:24.590Z,59.74
2022-10-16T13:00:27.640Z,60.39
2022-10-16T13:03:21.682Z,60.67
2022-10-16T13:06:06.571Z,60.39
2022-10-16T13:09:13.203Z,60.72
2022-10-16T13:11:52.903Z,61.42
2022-10-16T13:15:17.805Z,61.38
2022-10-16T13:18:03.406Z,61.92
2022-10-16T13:20:54.793Z,61.28
2022-10-16T13:23:37.309Z,61.54
2022-10-16T13:26:15.271Z,62.70
2022-10-16T13:28:42.338Z,62.46
2022-10-16T13:31:21.412Z,63.10
2022-10-16T13:33:56.007Z,62.97
2022-10-16T13:36:29.160Z,63.67
2022-10-16T13:39:21.979Z,64.80
2022-10-16T13:42:03.512Z,64.72
2022-10-16T13:44:49.635Z,65.08
2022-10-16T13:47:26.268Z,64.96
2022-10-16T13:50:15.432Z,64.22
2022-10-16T13:52:42.572Z,63.95
2022-10-16T13:55:18.881Z,64.82
2022-10-16T13:57:46.500Z,65.88
2022-10-16T14:00:19.605Z,65.50
2022-10-16T14:02:52.246Z,65.09
2022-10-16T14:05:19.199Z,65.20
2022-10-16T14:07:52.642Z,66.40
2022-10-16T14:10:33.697Z,66.47
2022-10-16T14:13:09.287Z,66.18
2022-10-16T14:15:37.723Z,66.37
2022-10-16T14:18:05.343Z,65.61
2022-10-16T14:20:35.259Z,66.78
2022-10-16T14:23:20.160Z,66.77
2022-10-16T14:25:47.656Z,66.27
2022-10-16T14:28:14.476Z,67.13
2022-10-16T14:30:55.990Z,66.94
2022-10-16T14:33:34.720Z,66.68
2022-10-16T14:36:10.505Z,67.83
2022-10-16T14:38:40.345Z,66.96
2022-10-16T14:41:08.013Z,67.00
2022-10-16T14:43:41.111Z,66.97
2022-10-16T14:46:15.252Z,66.82
2022-10-16T14:48:50.801Z,67.43
2022-10-16T14:51:20.796Z,67.94
2022-10-16T14:53:48.208Z,67.64
2022-10-16T14:56:22.061Z,67.24
2022-10-16T14:58:50.828Z,67.62
2022-10-16T15:01:18.168Z,67.43
2022-10-16T15:03:45.913Z,68.11
2022-10-16T15:06:14.664Z,68.17
2022-10-16T15:08:42.425Z,68.89
2022-10-16T15:11:18.981Z,69.16
2022-10-16T15:13:47.382Z,69.02
2022-10-16T15:16:17.368Z,69.28
2022-10-16T15:18:44.772Z,69.56
2022-10-16T15:21:28.601Z,70.57
2022-10-16T15:23:57.497Z,70.27
2022-10-16T15:26:29.512Z,70.71
2022-10-16T15:28:57.329Z,70.86
2022-10-16T15:31:25.170Z,71.31
2022-10-16T15:33:57.147Z,71.12
2022-10-16T15:36:29.720Z,70.79
2022-10-16T15:38:57.081Z,71.51
2022-10-16T15:41:24.280Z,71.15
2022-10-16T15:43:51.829Z,71.28
2022-10-16T15:46:24.159Z,71.94
2022-10-16T15:48:52.405Z,71.65
2022-10-16T15:51:19.790Z,71.49
2022-10-16T15:53:47.512Z,72.23
2022-10-16T15:56:15.482Z,72.57
2022-10-16T15:58:42.776Z,72.58
2022-10-16T16:01:11.494Z,73.26
2022-10-16T16:03:41.579Z,73.21
2022-10-16T16:06:11.834Z,73.33
2022-10-16T16:08:39.891Z,73.46
2022-10-16T16:11:12.596Z,73.99
2022-10-16T16:13:41.050Z,73.58
2022-10-16T16:16:13.425Z,74.03
2022-10-16T16:18:41.073Z,73.75
2022-10-16T16:21:08.870Z,73.88
2022-10-16T16:23:36.214Z,74.72
2022-10-16T16:26:15.461Z,75.30
2022-10-16T16:28:44.086Z,74.92
2022-10-16T16:31:11.331Z,74.30
2022-10-16T16:33:38.403Z,75.23
2022-10-16T16:36:11.513Z,75.28
2022-10-16T16:38:41.667Z,75.90
2022-10-16T16:41:26.821Z,76.26
2022-10-16T16:43:55.528Z,76.27
2022-10-16T16:46:22.952Z,76.50
2022-10-16T16:48:54.525Z,75.75
2022-10-16T16:51:21.556Z,76.47
2022-10-16T16:53:51.814Z,77.62
2022-10-16T16:56:20.093Z,76.67
2022-10-16T16:58:51.173Z,77.17
2022-10-16T17:01:20.678Z,76.82
2022-10-16T17:03:52.768Z,76.79
2022-10-16T17:06:22.988Z,77.45
2022-10-16T17:08:50.964Z,78.04
2022-10-16T17:11:22.851Z,78.21
2022-10-16T17:13:56.457Z,77.84
2022-10-16T17:16:32.249Z,78.47
2022-10-16T17:19:06.157Z,77.94
2022-10-16T17:21:33.485Z,79.14
2022-10-16T17:24:01.607Z,79.26
2022-10-16T17:26:29.208Z,79.74
2022-10-16T17:28:59.616Z,79.41
2022-10-16T17:31:33.901Z,79.69
2022-10-16T17:34:04.646Z,80.39
2022-10-16T17:36:35.020Z,80.31
2022-10-16T17:39:09.078Z,80.75
2022-10-16T17:41:36.913Z,80.30
2022-10-16T17:44:05.380Z,80.39
2022-10-16T17:46:36.953Z,81.00
2022-10-16T17:49:07.217Z,81.25
2022-10-16T17:51:34.231Z,81.06
2022-10-16T17:54:02.648Z,80.92
2022-10-16T17:56:31.274Z,81.68
2022-10-16T17:59:01.774Z,80.89
2022-10-16T18:01:32.573Z,81.50
2022-10-16T18:04:07.436Z,80.87
2022-10-16T18:06:35.363Z,81.79
2022-10-16T18:09:04.393Z,81.55
2022-10-16T18:11:31.612Z,80.25
2022-10-16T18:14:00.257Z,81.52
2022-10-16T18:16:30.436Z,81.20
2022-10-16T18:18:59.050Z,80.85
2022-10-16T18:21:28.002Z,80.93
2022-10-16T18:23:55.439Z,82.61
2022-10-16T18:26:23.645Z,83.18
2022-10-16T18:28:55.952Z,83.70
2022-10-16T18:31:23.745Z,81.68
2022-10-16T18:33:51.471Z,82.60
2022-10-16T18:36:32.380Z,82.23
2022-10-16T18:39:01.024Z,82.55
2022-10-16T18:41:29.208Z,82.59
2022-10-16T18:43:56.483Z,83.07
2022-10-16T18:46:25.453Z,83.34
2022-10-16T18:48:54.332Z,83.38
2022-10-16T18:51:31.320Z,84.44
2022-10-16T18:54:04.985Z,84.77
2022-10-16T18:56:32.813Z,84.19
2022-10-16T18:59:02.458Z,85.28
2022-10-16T19:01:32.657Z,85.57
2022-10-16T19:04:07.205Z,85.13
2022-10-16T19:06:42.834Z,85.70
2022-10-16T19:09:10.987Z,85.13
2022-10-16T19:11:41.619Z,86.34
2022-10-16T19:14:10.489Z,87.05
2022-10-16T19:16:38.127Z,87.66
2022-10-16T19:19:08.857Z,87.53
2022-10-16T19:21:39.747Z,87.20
2022-10-16T19:24:08.302Z,87.70
2022-10-16T19:26:38.114Z,88.09
2022-10-16T19:29:09.221Z,89.06
2022-10-16T19:31:36.550Z,88.92
2022-10-16T19:34:06.760Z,89.17
2022-10-16T19:36:38.422Z,88.83
2022-10-16T19:39:13.511Z,90.23
2022-10-16T19:41:41.257Z,89.52
2022-10-16T19:44:13.162Z,90.20
2022-10-16T19:46:40.065Z,91.09
2022-10-16T19:49:12.351Z,90.92
2022-10-16T19:51:40.291Z,91.66
2022-10-16T19:54:11.981Z,91.34
2022-10-16T19:56:39.233Z,91.78
2022-10-16T19:59:08.779Z,91.20
2022-10-16T20:01:35.850Z,91.08
2022-10-16T20:04:02.804Z,91.11
2022-10-16T20:06:29.741Z,91.35
2022-10-16T20:08:58.321Z,90.68
2022-10-16T20:11:29.276Z,91.62
2022-10-16T20:13:56.996Z,92.28
2022-10-16T20:16:24.691Z,92.63
2022-10-16T20:18:52.819Z,92.47
2022-10-16T20:21:27.024Z,91.20
2022-10-16T20:23:54.093Z,90.99
2022-10-16T20:26:25.911Z,91.53
2022-10-16T20:28:54.428Z,92.28
2022-10-16T20:31:28.276Z,93.36
2022-10-16T20:33:57.662Z,92.76
2022-10-16T20:36:26.805Z,93.65
2022-10-16T20:38:54.256Z,93.45
2022-10-16T20:41:22.604Z,93.72
2022-10-16T20:43:52.283Z,93.47
2022-10-16T20:46:23.538Z,93.58
2022-10-16T20:48:52.496Z,93.29
2022-10-16T20:51:26.225Z,93.59
2022-10-16T20:54:04.309Z,93.79
2022-10-16T20:56:33.991Z,94.29
2022-10-16T20:59:01.103Z,93.69
2022-10-16T21:01:31.057Z,93.94
2022-10-16T21:04:02.033Z,93.68
2022-10-16T21:06:31.696Z,93.52
2022-10-16T21:09:02.941Z,93.63
2022-10-16T21:11:33.814Z,94.28
2022-10-16T21:14:03.659Z,94.06
2022-10-16T21:16:31.894Z,94.17
2022-10-16T21:18:58.991Z,94.52
2022-10-16T21:21:33.022Z,93.88
2022-10-16T21:24:00.902Z,93.99
2022-10-16T21:26:30.210Z,94.21
2022-10-16T21:28:59.397Z,94.20
2022-10-16T21:31:27.295Z,94.76
2022-10-16T21:33:55.433Z,94.58
2022-10-16T21:36:32.124Z,94.00
2022-10-16T21:39:06.297Z,94.79
2022-10-16T21:41:34.397Z,94.58
2022-10-16T21:44:02.261Z,94.53
2022-10-16T21:46:33.174Z,94.79
2022-10-16T21:49:02.932Z,94.58
2022-10-16T21:51:34.297Z,94.92
2022-10-16T21:54:03.464Z,95.15
2022-10-16T21:56:30.674Z,94.91
2022-10-16T21:58:58.018Z,94.88
2022-10-16T22:01:27.500Z,95.11
2022-10-16T22:03:55.267Z,95.30
2022-10-16T22:06:25.615Z,95.66
2022-10-16T22:08:56.255Z,95.95
2022-10-16T22:11:36.959Z,95.70
2022-10-16T22:14:09.686Z,96.04
2022-10-16T22:16:37.452Z,96.28
2022-10-16T22:19:07.446Z,96.13
2022-10-16T22:21:40.241Z,96.66
2022-10-16T22:24:07.966Z,96.72
2022-10-16T22:26:36.191Z,96.52
2022-10-16T22:29:03.948Z,96.87
2022-10-16T22:31:31.001Z,97.02
2022-10-16T22:34:03.403Z,96.92
2022-10-16T22:36:31.498Z,96.80
2022-10-16T22:38:59.343Z,97.53
2022-10-16T22:41:26.720Z,97.64
2022-10-16T22:43:53.979Z,98.11
2022-10-16T22:46:27.461Z,97.65
2022-10-16T22:48:55.983Z,98.43
2022-10-16T22:51:25.063Z,97.67
2022-10-16T22:53:52.072Z,97.56
2022-10-16T22:56:20.985Z,98.12
2022-10-16T22:58:47.990Z,98.15
2022-10-16T23:01:31.182Z,98.24
2022-10-16T23:03:58.265Z,97.60
2022-10-16T23:06:25.402Z,97.56
2022-10-16T23:08:55.685Z,98.05
2022-10-16T23:11:23.319Z,98.34
2022-10-16T23:13:50.693Z,98.67
2022-10-16T23:16:20.287Z,98.94
2022-10-16T23:18:48.525Z,98.39
2022-10-16T23:21:22.578Z,99.20
2022-10-16T23:23:51.208Z,99.32
2022-10-16T23:26:26.522Z,98.94
2022-10-16T23:28:56.062Z,98.64
2022-10-16T23:31:23.166Z,99.91
2022-10-16T23:33:50.178Z,99.37
2022-10-16T23:36:20.423Z,99.80
2022-10-16T23:38:48.917Z,100.00
2022-10-16T23:41:17.274Z,100.00
2022-10-16T23:43:44.267Z,99.97
2022-10-16T23:46:12.887Z,100.00
2022-10-16T23:48:40.606Z,100.00
2022-10-16T23:51:10.051Z,99.29
2022-10-16T23:53:37.632Z,99.89
2022-10-16T23:56:05.256Z,100.00
2022-10-16T23:58:32.225Z,100.00
